Time;durP1;ratioP1;P1;durP2;ratioP2;P2;SDS_P1;SDS_P2;PMS_P1;PMS_P2;Temp;Humidity;BMP_temperature;BMP_pressure;BME280_temperature;BME280_humidity;BME280_pressure;Samples;Min_cycle;Max_cycle;Signal;HPM_P1;HPM_P2
2022/07/22 00:00:03;;;;;;;;;;;30.60;42.20;;;;;;664798;29;1426;-88
2022/07/22 00:00:24;;;;;;;;;;;30.60;39.50;;;;;;663469;29;1493;-90
2022/07/22 00:00:45;;;;;;;;;;;30.70;42.50;;;;;;663289;29;1299;-87
2022/07/22 00:01:05;;;;;;;;;;;30.70;42.50;;;;;;663014;29;1328;-88
2022/07/22 00:01:26;;;;;;;;;;;30.70;42.80;;;;;;663110;29;1188;-92
2022/07/22 00:01:49;;;;;;;;;;;30.70;43.40;;;;;;663498;29;1438;-90
2022/07/22 00:02:09;;;;;;;;;;;30.70;42.00;;;;;;665103;29;1375;-87
2022/07/22 00:02:30;;;;;;;;;;;30.90;40.80;;;;;;665721;29;1216;-91
2022/07/22 00:02:51;;;;;;;;;;;30.70;40.50;;;;;;665815;29;1403;-92
2022/07/22 00:03:11;;;;;;;;;;;30.70;39.90;;;;;;665007;29;1319;-93
2022/07/22 00:03:32;;;;;;;;;;;30.70;40.00;;;;;;665484;29;1895;-92
2022/07/22 00:03:52;;;;;;;;;;;30.70;39.60;;;;;;665440;29;824;-92
2022/07/22 00:04:13;;;;;;;;;;;30.60;41.40;;;;;;665699;29;1276;-93
2022/07/22 00:04:36;;;;;;;;;;;30.60;41.10;;;;;;665212;29;1090;-92
2022/07/22 00:04:56;;;;;;;;;;;30.60;42.40;;;;;;663401;29;1338;-93
2022/07/22 00:05:17;;;;;;;;;;;30.60;41.00;;;;;;665493;29;1492;-89
2022/07/22 00:05:37;;;;;;;;;;;33.30;42.90;;;;;;662905;29;1178;-90
2022/07/22 00:05:58;;;;;;;;;;;30.70;40.60;;;;;;664789;29;1299;-93
2022/07/22 00:06:19;;;;;;;;;;;30.80;43.40;;;;;;662775;29;1308;-89
2022/07/22 00:06:40;;;;;;;;;;;30.60;41.60;;;;;;660496;29;1307;-92
2022/07/22 00:07:00;;;;;;;;;;;30.60;41.30;;;;;;660653;29;1441;-90
2022/07/22 00:07:21;;;;;;;;;;;30.60;40.20;;;;;;660667;29;1196;-89
2022/07/22 00:07:42;;;;;;;;;;;30.60;40.70;;;;;;659627;29;1281;-92
2022/07/22 00:08:02;;;;;;;;;;;30.60;42.80;;;;;;660715;29;1223;-91
2022/07/22 00:08:23;;;;;;;;;;;30.60;40.60;;;;;;663623;29;1407;-93
2022/07/22 00:08:44;;;;;;;;;;;30.60;40.40;;;;;;660003;29;1177;-87
2022/07/22 00:09:04;;;;;;;;;;;30.60;40.90;;;;;;659958;29;1186;-89
2022/07/22 00:09:25;;;;;;;;;;;30.90;43.80;;;;;;658218;29;1165;-89
2022/07/22 00:09:46;;;;;;;;;;;30.90;43.00;;;;;;660588;29;1387;-91
2022/07/22 00:10:07;;;;;;;;;;;30.60;42.60;;;;;;660370;29;1181;-84
2022/07/22 00:10:28;;;;;;;;;;;31.00;40.70;;;;;;662275;29;1179;-92
2022/07/22 00:10:49;;;;;;;;;;;32.30;43.50;;;;;;662257;29;1183;-88
2022/07/22 00:11:09;;;;;;;;;;;30.80;43.40;;;;;;662298;29;1304;-91
2022/07/22 00:11:30;;;;;;;;;;;30.60;42.00;;;;;;663210;29;1355;-91
2022/07/22 00:11:51;;;;;;;;;;;30.80;45.40;;;;;;662759;29;1221;-88
2022/07/22 00:12:11;;;;;;;;;;;30.70;43.20;;;;;;663090;29;1261;-93
2022/07/22 00:12:32;;;;;;;;;;;30.60;40.70;;;;;;665210;29;1390;-93
2022/07/22 00:12:53;;;;;;;;;;;30.60;42.80;;;;;;664813;29;1477;-93
2022/07/22 00:13:13;;;;;;;;;;;30.60;43.10;;;;;;665116;29;1335;-93
2022/07/22 00:13:34;;;;;;;;;;;30.60;43.10;;;;;;665323;29;1315;-94
2022/07/22 00:13:55;;;;;;;;;;;30.60;44.10;;;;;;664883;29;1348;-93
2022/07/22 00:14:15;;;;;;;;;;;30.60;41.90;;;;;;660095;29;1247;-91
2022/07/22 00:14:36;;;;;;;;;;;30.60;39.40;;;;;;660187;29;1293;-91
2022/07/22 00:14:56;;;;;;;;;;;30.90;42.20;;;;;;660156;29;1198;-90
2022/07/22 00:15:17;;;;;;;;;;;30.60;41.10;;;;;;660119;29;1198;-93
2022/07/22 00:15:38;;;;;;;;;;;30.60;40.40;;;;;;660198;29;1317;-90
2022/07/22 00:15:58;;;;;;;;;;;30.60;41.50;;;;;;662714;29;1376;-90
2022/07/22 00:16:19;;;;;;;;;;;30.60;42.40;;;;;;662761;29;1347;-89
2022/07/22 00:16:40;;;;;;;;;;;30.80;43.30;;;;;;662506;29;793;-92
2022/07/22 00:17:00;;;;;;;;;;;30.60;42.30;;;;;;660513;29;1296;-87
2022/07/22 00:17:21;;;;;;;;;;;30.70;40.90;;;;;;662884;29;1334;-90
2022/07/22 00:17:42;;;;;;;;;;;30.80;42.80;;;;;;665029;29;1307;-90
2022/07/22 00:18:05;;;;;;;;;;;30.60;39.50;;;;;;666961;29;1471;-89
2022/07/22 00:18:26;;;;;;;;;;;30.70;38.30;;;;;;665755;29;1310;-88
2022/07/22 00:18:46;;;;;;;;;;;31.00;42.80;;;;;;667372;29;1284;-92
2022/07/22 00:19:07;;;;;;;;;;;30.60;43.50;;;;;;667001;29;1361;-88
2022/07/22 00:19:28;;;;;;;;;;;30.60;39.50;;;;;;664549;29;1159;-90
2022/07/22 00:19:48;;;;;;;;;;;30.60;38.70;;;;;;664991;29;1164;-84
2022/07/22 00:20:09;;;;;;;;;;;30.60;38.60;;;;;;665206;29;1307;-87
2022/07/22 00:20:30;;;;;;;;;;;31.00;39.50;;;;;;664781;29;1245;-87
2022/07/22 00:20:50;;;;;;;;;;;30.80;46.40;;;;;;665583;29;1399;-90
2022/07/22 00:21:11;;;;;;;;;;;30.60;43.40;;;;;;663788;29;1310;-93
2022/07/22 00:21:32;;;;;;;;;;;30.80;44.70;;;;;;662435;29;984;-89
2022/07/22 00:21:53;;;;;;;;;;;30.70;44.90;;;;;;663312;29;1214;-87
2022/07/22 00:22:13;;;;;;;;;;;30.60;41.00;;;;;;664309;29;1354;-90
2022/07/22 00:22:34;;;;;;;;;;;30.60;43.90;;;;;;661710;29;1308;-90
2022/07/22 00:22:55;;;;;;;;;;;30.60;43.60;;;;;;662160;29;1296;-93
2022/07/22 00:23:15;;;;;;;;;;;30.60;39.40;;;;;;662141;29;1334;-90
2022/07/22 00:23:36;;;;;;;;;;;30.60;42.50;;;;;;661276;30;1919;-85
2022/07/22 00:23:57;;;;;;;;;;;30.60;39.60;;;;;;662206;29;1395;-86
2022/07/22 00:24:18;;;;;;;;;;;30.60;41.40;;;;;;660847;29;1252;-89
2022/07/22 00:24:38;;;;;;;;;;;30.80;39.40;;;;;;662662;29;1235;-90
2022/07/22 00:24:59;;;;;;;;;;;30.90;43.40;;;;;;662650;29;1279;-86
2022/07/22 00:25:20;;;;;;;;;;;30.70;42.70;;;;;;662642;29;1305;-90
2022/07/22 00:25:41;;;;;;;;;;;29.80;43.10;;;;;;660080;29;1319;-93
2022/07/22 00:26:01;;;;;;;;;;;30.60;38.70;;;;;;660252;30;1417;-90
2022/07/22 00:26:22;;;;;;;;;;;30.80;40.30;;;;;;660012;30;1258;-88
2022/07/22 00:26:43;;;;;;;;;;;30.60;42.40;;;;;;660473;29;1335;-92
2022/07/22 00:27:03;;;;;;;;;;;30.60;42.00;;;;;;660448;29;1220;-90
2022/07/22 00:27:24;;;;;;;;;;;30.50;43.00;;;;;;663084;29;1189;-88
2022/07/22 00:27:45;;;;;;;;;;;30.60;41.60;;;;;;665015;29;1246;-94
2022/07/22 00:28:05;;;;;;;;;;;30.60;38.80;;;;;;662718;29;1185;-86
2022/07/22 00:28:26;;;;;;;;;;;30.60;40.20;;;;;;662342;29;1190;-88
2022/07/22 00:28:47;;;;;;;;;;;30.50;40.20;;;;;;660082;29;1238;-90
2022/07/22 00:29:07;;;;;;;;;;;30.60;40.50;;;;;;662307;29;1323;-85
2022/07/22 00:29:28;;;;;;;;;;;30.60;39.90;;;;;;660470;29;1209;-91
2022/07/22 00:29:48;;;;;;;;;;;30.70;42.10;;;;;;662478;29;1483;-91
2022/07/22 00:30:09;;;;;;;;;;;30.60;40.70;;;;;;665125;29;1386;-92
2022/07/22 00:30:30;;;;;;;;;;;30.60;38.90;;;;;;665143;29;1184;-93
2022/07/22 00:30:50;;;;;;;;;;;30.50;39.60;;;;;;665115;29;1241;-89
2022/07/22 00:31:11;;;;;;;;;;;30.60;40.40;;;;;;664859;29;1310;-91
2022/07/22 00:31:32;;;;;;;;;;;30.60;41.90;;;;;;665086;29;1308;-91
2022/07/22 00:31:52;;;;;;;;;;;30.60;41.00;;;;;;665092;29;1361;-94
2022/07/22 00:32:13;;;;;;;;;;;30.90;41.80;;;;;;665051;29;1313;-95
2022/07/22 00:32:34;;;;;;;;;;;30.60;42.30;;;;;;664817;29;1473;-93
2022/07/22 00:32:58;;;;;;;;;;;30.60;39.20;;;;;;665249;29;1149;-89
2022/07/22 00:33:18;;;;;;;;;;;30.60;38.10;;;;;;665132;29;1221;-90
2022/07/22 00:33:39;;;;;;;;;;;30.60;43.10;;;;;;665820;29;1252;-89
2022/07/22 00:34:03;;;;;;;;;;;30.60;43.00;;;;;;666970;29;1307;-91
2022/07/22 00:34:23;;;;;;;;;;;30.70;38.40;;;;;;666683;29;1360;-92
2022/07/22 00:34:44;;;;;;;;;;;30.60;40.00;;;;;;666520;29;1097;-89
2022/07/22 00:35:05;;;;;;;;;;;30.60;39.30;;;;;;667413;29;1140;-86
2022/07/22 00:35:26;;;;;;;;;;;30.60;38.00;;;;;;664229;29;1474;-94
2022/07/22 00:35:46;;;;;;;;;;;30.60;38.60;;;;;;663282;29;1496;-88
2022/07/22 00:36:07;;;;;;;;;;;30.60;40.30;;;;;;664651;29;1342;-94
2022/07/22 00:36:28;;;;;;;;;;;30.60;42.00;;;;;;662245;29;1374;-93
2022/07/22 00:36:49;;;;;;;;;;;30.60;38.50;;;;;;662454;29;1184;-92
2022/07/22 00:37:09;;;;;;;;;;;30.50;39.60;;;;;;665078;29;1161;-91
2022/07/22 00:37:30;;;;;;;;;;;30.60;40.60;;;;;;662833;29;1308;-91
2022/07/22 00:37:51;;;;;;;;;;;30.60;39.70;;;;;;662741;29;1218;-94
2022/07/22 00:38:11;;;;;;;;;;;30.50;39.80;;;;;;662919;29;1295;-95
2022/07/22 00:38:32;;;;;;;;;;;30.60;39.10;;;;;;664829;29;1487;-95
2022/07/22 00:38:52;;;;;;;;;;;30.60;41.10;;;;;;662607;29;1181;-94
2022/07/22 00:39:15;;;;;;;;;;;30.60;40.40;;;;;;662990;29;1328;-93
2022/07/22 00:39:35;;;;;;;;;;;30.60;40.50;;;;;;667103;29;1450;-90
2022/07/22 00:39:56;;;;;;;;;;;30.50;40.80;;;;;;662845;29;1500;-94
2022/07/22 00:40:16;;;;;;;;;;;30.50;41.50;;;;;;662602;29;1439;-92
2022/07/22 00:40:37;;;;;;;;;;;30.70;43.60;;;;;;662863;29;802;-91
2022/07/22 00:40:58;;;;;;;;;;;30.50;41.60;;;;;;663126;29;1275;-94
2022/07/22 00:41:18;;;;;;;;;;;30.60;39.60;;;;;;665134;29;1317;-94
2022/07/22 00:41:39;;;;;;;;;;;30.60;42.70;;;;;;665194;29;1474;-94
2022/07/22 00:42:00;;;;;;;;;;;30.50;40.00;;;;;;662623;29;1485;-93
2022/07/22 00:42:20;;;;;;;;;;;30.50;42.00;;;;;;662469;29;1389;-90
2022/07/22 00:42:41;;;;;;;;;;;30.60;39.40;;;;;;662649;29;1317;-93
2022/07/22 00:43:01;;;;;;;;;;;30.50;39.50;;;;;;662650;29;1386;-92
2022/07/22 00:43:22;;;;;;;;;;;30.50;42.90;;;;;;662578;29;1970;-94
2022/07/22 00:43:58;;;;;;;;;;;30.50;41.00;;;;;;662587;29;1182;-95
2022/07/22 00:44:19;;;;;;;;;;;30.50;37.90;;;;;;660015;29;1174;-91
2022/07/22 00:44:39;;;;;;;;;;;31.10;38.70;;;;;;660034;29;1495;-92
2022/07/22 00:45:00;;;;;;;;;;;30.50;39.30;;;;;;657650;30;1214;-94
2022/07/22 00:45:21;;;;;;;;;;;30.60;41.80;;;;;;657592;30;1288;-94
2022/07/22 00:45:42;;;;;;;;;;;30.50;39.90;;;;;;657791;30;864;-92
2022/07/22 00:46:04;;;;;;;;;;;30.70;39.20;;;;;;657645;30;1163;-93
2022/07/22 00:46:26;;;;;;;;;;;31.80;40.20;;;;;;657999;30;1381;-93
2022/07/22 00:46:46;;;;;;;;;;;30.70;39.40;;;;;;660668;29;1385;-94
2022/07/22 00:47:07;;;;;;;;;;;30.60;42.10;;;;;;660400;29;1238;-92
2022/07/22 00:47:27;;;;;;;;;;;30.50;41.80;;;;;;662177;29;1253;-93
2022/07/22 00:47:48;;;;;;;;;;;30.50;41.00;;;;;;662553;29;1209;-90
2022/07/22 00:48:09;;;;;;;;;;;30.70;42.80;;;;;;662540;29;1233;-92
2022/07/22 00:48:29;;;;;;;;;;;30.70;42.10;;;;;;662655;29;1338;-94
2022/07/22 00:48:50;;;;;;;;;;;30.70;41.10;;;;;;660175;29;1295;-91
2022/07/22 00:49:10;;;;;;;;;;;30.60;43.00;;;;;;662544;29;1414;-94
2022/07/22 00:49:31;;;;;;;;;;;30.90;42.10;;;;;;662787;29;1333;-94
2022/07/22 00:49:52;;;;;;;;;;;30.50;42.30;;;;;;664895;29;1263;-93
2022/07/22 00:50:14;;;;;;;;;;;30.50;43.50;;;;;;665406;29;1350;-91
2022/07/22 00:50:35;;;;;;;;;;;30.50;39.80;;;;;;663361;29;1289;-89
2022/07/22 00:50:56;;;;;;;;;;;30.50;38.30;;;;;;660120;29;1261;-94
2022/07/22 00:51:18;;;;;;;;;;;30.50;45.20;;;;;;660150;29;1236;-94
2022/07/22 00:51:39;;;;;;;;;;;30.50;40.40;;;;;;657688;29;1345;-90
2022/07/22 00:52:00;;;;;;;;;;;30.50;42.60;;;;;;658456;29;1330;-91
2022/07/22 00:52:21;;;;;;;;;;;30.70;39.80;;;;;;660762;29;1318;-93
2022/07/22 00:52:42;;;;;;;;;;;30.50;38.80;;;;;;660239;29;1360;-94
2022/07/22 00:53:02;;;;;;;;;;;30.50;42.90;;;;;;660685;29;1288;-90
2022/07/22 00:53:23;;;;;;;;;;;30.50;44.00;;;;;;660454;29;1446;-93
2022/07/22 00:53:46;;;;;;;;;;;30.80;45.00;;;;;;658033;29;1429;-94
2022/07/22 00:54:07;;;;;;;;;;;27.30;35.50;;;;;;658152;29;1401;-93
2022/07/22 00:54:27;;;;;;;;;;;30.90;42.10;;;;;;658105;29;1487;-96
2022/07/22 00:54:48;;;;;;;;;;;30.80;42.00;;;;;;660461;29;1201;-93
2022/07/22 00:55:09;;;;;;;;;;;30.50;41.10;;;;;;660335;29;1227;-93
2022/07/22 00:55:30;;;;;;;;;;;30.60;45.20;;;;;;660093;29;1276;-95
2022/07/22 00:55:50;;;;;;;;;;;30.50;46.20;;;;;;657846;29;1299;-93
2022/07/22 00:56:11;;;;;;;;;;;30.50;46.30;;;;;;658212;29;1297;-91
2022/07/22 00:56:32;;;;;;;;;;;30.50;43.30;;;;;;660152;29;1289;-95
2022/07/22 00:56:53;;;;;;;;;;;29.40;44.90;;;;;;660591;29;1304;-96
2022/07/22 00:57:13;;;;;;;;;;;30.50;43.30;;;;;;660031;29;1316;-94
2022/07/22 00:57:35;;;;;;;;;;;30.50;46.10;;;;;;660302;29;1265;-95
2022/07/22 00:57:55;;;;;;;;;;;30.50;44.90;;;;;;658083;30;1395;-95
2022/07/22 00:58:16;;;;;;;;;;;30.90;49.10;;;;;;660123;29;1260;-92
2022/07/22 00:58:36;;;;;;;;;;;30.90;44.80;;;;;;657781;30;1364;-91
2022/07/22 00:58:58;;;;;;;;;;;30.50;43.60;;;;;;655388;30;1376;-91
2022/07/22 00:59:19;;;;;;;;;;;30.60;39.20;;;;;;655687;30;1245;-91
2022/07/22 00:59:40;;;;;;;;;;;30.50;45.40;;;;;;655773;30;1421;-93
2022/07/22 01:00:01;;;;;;;;;;;30.80;40.80;;;;;;658231;29;1377;-94
2022/07/22 01:00:22;;;;;;;;;;;30.50;42.20;;;;;;660494;29;1223;-95
2022/07/22 01:00:43;;;;;;;;;;;30.50;42.30;;;;;;660650;30;988;-91
2022/07/22 01:01:04;;;;;;;;;;;30.50;37.60;;;;;;661601;29;1302;-93
2022/07/22 01:01:25;;;;;;;;;;;30.50;43.60;;;;;;658657;30;1097;-95
2022/07/22 01:01:46;;;;;;;;;;;30.50;41.70;;;;;;660009;29;1535;-95
2022/07/22 01:02:08;;;;;;;;;;;30.50;45.70;;;;;;658416;30;1356;-95
2022/07/22 01:02:28;;;;;;;;;;;30.50;39.70;;;;;;660731;29;1362;-93
2022/07/22 01:02:49;;;;;;;;;;;31.10;46.50;;;;;;663032;29;1370;-92
2022/07/22 01:03:10;;;;;;;;;;;30.50;49.00;;;;;;663317;29;1339;-95
2022/07/22 01:03:31;;;;;;;;;;;30.50;47.30;;;;;;657980;29;1967;-90
2022/07/22 01:03:52;;;;;;;;;;;30.50;41.50;;;;;;660624;29;1342;-95
2022/07/22 01:04:12;;;;;;;;;;;30.50;40.20;;;;;;657646;29;1387;-95
2022/07/22 01:04:33;;;;;;;;;;;30.50;40.50;;;;;;657966;29;1277;-91
2022/07/22 01:04:54;;;;;;;;;;;30.50;46.30;;;;;;659948;29;1337;-94
2022/07/22 01:05:14;;;;;;;;;;;30.50;45.80;;;;;;660126;29;1186;-95
2022/07/22 01:05:35;;;;;;;;;;;30.50;44.30;;;;;;660269;29;1339;-94
2022/07/22 01:05:56;;;;;;;;;;;30.50;41.10;;;;;;660456;29;1109;-94
2022/07/22 01:06:16;;;;;;;;;;;28.40;40.40;;;;;;662677;29;777;-89
2022/07/22 01:06:37;;;;;;;;;;;30.50;43.50;;;;;;660196;29;1209;-91
2022/07/22 01:06:58;;;;;;;;;;;30.50;44.80;;;;;;660226;29;1225;-94
2022/07/22 01:07:18;;;;;;;;;;;27.90;43.50;;;;;;657874;29;1182;-95
2022/07/22 01:07:39;;;;;;;;;;;30.60;42.10;;;;;;660577;29;1371;-95
2022/07/22 01:08:00;;;;;;;;;;;30.50;39.00;;;;;;662713;29;1197;-94
2022/07/22 01:08:20;;;;;;;;;;;30.50;44.60;;;;;;662899;29;813;-95
2022/07/22 01:08:42;;;;;;;;;;;30.60;46.10;;;;;;663175;29;1212;-89
2022/07/22 01:09:03;;;;;;;;;;;30.70;39.00;;;;;;665371;29;1351;-92
2022/07/22 01:09:23;;;;;;;;;;;28.30;38.80;;;;;;662862;29;1216;-93
2022/07/22 01:09:45;;;;;;;;;;;30.50;47.20;;;;;;662805;29;750;-89
2022/07/22 01:10:06;;;;;;;;;;;30.50;39.80;;;;;;662615;29;1284;-90
2022/07/22 01:10:27;;;;;;;;;;;30.70;38.40;;;;;;662701;29;1130;-94
2022/07/22 01:10:47;;;;;;;;;;;30.50;47.60;;;;;;660665;29;1362;-94
2022/07/22 01:11:18;;;;;;;;;;;30.60;43.60;;;;;;662808;29;1290;-92
2022/07/22 01:11:41;;;;;;;;;;;30.60;39.10;;;;;;658915;30;1354;-89
2022/07/22 01:12:03;;;;;;;;;;;27.20;35.40;;;;;;660298;29;1412;-93
2022/07/22 01:12:24;;;;;;;;;;;30.60;40.70;;;;;;660601;29;1346;-95
2022/07/22 01:12:44;;;;;;;;;;;30.70;45.30;;;;;;660562;29;1217;-91
2022/07/22 01:13:06;;;;;;;;;;;30.70;48.80;;;;;;662637;29;949;-94
2022/07/22 01:13:27;;;;;;;;;;;30.80;49.70;;;;;;660851;29;1434;-94
2022/07/22 01:13:48;;;;;;;;;;;30.80;49.80;;;;;;661182;29;1202;-94
2022/07/22 01:14:09;;;;;;;;;;;30.60;39.50;;;;;;661044;29;1224;-92
2022/07/22 01:14:30;;;;;;;;;;;30.90;50.30;;;;;;660531;29;1216;-94
2022/07/22 01:14:52;;;;;;;;;;;30.50;45.50;;;;;;663027;29;1568;-86
2022/07/22 01:15:12;;;;;;;;;;;30.50;37.80;;;;;;663688;29;1318;-92
2022/07/22 01:15:33;;;;;;;;;;;30.50;48.00;;;;;;663109;29;1313;-94
2022/07/22 01:15:54;;;;;;;;;;;29.80;48.20;;;;;;660569;29;1479;-93
2022/07/22 01:16:15;;;;;;;;;;;30.50;50.40;;;;;;658204;30;1305;-93
2022/07/22 01:16:38;;;;;;;;;;;30.80;40.40;;;;;;659014;29;1376;-93
2022/07/22 01:17:00;;;;;;;;;;;30.70;43.40;;;;;;659240;29;1210;-95
2022/07/22 01:17:20;;;;;;;;;;;30.50;37.80;;;;;;661589;29;1270;-91
2022/07/22 01:17:42;;;;;;;;;;;30.80;41.00;;;;;;663894;29;1038;-94
2022/07/22 01:18:04;;;;;;;;;;;30.70;47.00;;;;;;663243;29;1213;-94
2022/07/22 01:18:24;;;;;;;;;;;30.70;38.00;;;;;;660943;30;1246;-90
2022/07/22 01:18:46;;;;;;;;;;;30.50;46.60;;;;;;659415;30;1367;-91
2022/07/22 01:19:07;;;;;;;;;;;30.60;42.00;;;;;;661962;29;1305;-91
2022/07/22 01:19:28;;;;;;;;;;;30.80;38.10;;;;;;661065;29;1430;-94
2022/07/22 01:19:49;;;;;;;;;;;28.30;46.70;;;;;;661700;29;1508;-94
2022/07/22 01:20:11;;;;;;;;;;;30.60;43.80;;;;;;664066;29;1122;-96
2022/07/22 01:20:32;;;;;;;;;;;30.70;38.20;;;;;;663657;29;1308;-93
2022/07/22 01:20:53;;;;;;;;;;;30.70;47.00;;;;;;665967;29;1493;-95
2022/07/22 01:21:15;;;;;;;;;;;30.50;37.20;;;;;;666033;29;757;-93
2022/07/22 01:21:36;;;;;;;;;;;30.70;38.10;;;;;;666188;29;1124;-94
2022/07/22 01:21:57;;;;;;;;;;;31.50;37.60;;;;;;664298;29;1268;-92
2022/07/22 01:22:19;;;;;;;;;;;30.80;47.50;;;;;;665329;29;1335;-96
2022/07/22 01:22:40;;;;;;;;;;;30.80;38.20;;;;;;665852;29;1451;-96
2022/07/22 01:23:00;;;;;;;;;;;31.00;46.30;;;;;;666445;29;1367;-95
2022/07/22 01:23:21;;;;;;;;;;;28.10;37.80;;;;;;666013;29;1903;-95
2022/07/22 01:23:43;;;;;;;;;;;28.40;40.90;;;;;;666096;29;1066;-95
2022/07/22 01:24:05;;;;;;;;;;;30.50;37.60;;;;;;665807;29;864;-96
2022/07/22 01:24:26;;;;;;;;;;;30.70;41.50;;;;;;662910;29;1290;-95
2022/07/22 01:24:48;;;;;;;;;;;30.60;41.00;;;;;;664296;29;1372;-96
2022/07/22 01:25:09;;;;;;;;;;;30.50;42.80;;;;;;661996;29;1286;-91
2022/07/22 01:25:30;;;;;;;;;;;30.50;38.00;;;;;;661040;29;1314;-94
2022/07/22 01:25:51;;;;;;;;;;;28.00;45.20;;;;;;660503;29;1387;-94
2022/07/22 01:26:12;;;;;;;;;;;30.80;41.60;;;;;;660250;29;1343;-95
2022/07/22 01:26:33;;;;;;;;;;;31.70;45.60;;;;;;660632;29;1371;-95
2022/07/22 01:26:53;;;;;;;;;;;30.50;45.20;;;;;;660873;29;1359;-94
2022/07/22 01:27:14;;;;;;;;;;;30.50;45.00;;;;;;662846;29;1354;-90
2022/07/22 01:27:35;;;;;;;;;;;30.50;49.10;;;;;;660851;29;1379;-91
2022/07/22 01:27:55;;;;;;;;;;;30.60;44.30;;;;;;662960;29;1213;-94
2022/07/22 01:28:16;;;;;;;;;;;28.50;44.80;;;;;;663503;29;1292;-93
2022/07/22 01:28:38;;;;;;;;;;;30.00;43.30;;;;;;661335;29;1321;-91
2022/07/22 01:28:59;;;;;;;;;;;31.40;38.40;;;;;;660994;29;1253;-91
2022/07/22 01:29:20;;;;;;;;;;;30.50;43.20;;;;;;661125;29;1322;-95
2022/07/22 01:29:40;;;;;;;;;;;30.60;48.30;;;;;;663815;29;991;-91
2022/07/22 01:30:01;;;;;;;;;;;30.80;49.90;;;;;;666158;29;1093;-95
2022/07/22 01:30:22;;;;;;;;;;;30.50;42.40;;;;;;665185;29;1210;-95
2022/07/22 01:30:42;;;;;;;;;;;30.50;36.60;;;;;;665124;29;1331;-93
2022/07/22 01:31:04;;;;;;;;;;;30.50;40.20;;;;;;665205;29;1316;-92
2022/07/22 01:31:25;;;;;;;;;;;30.90;37.90;;;;;;665405;29;1246;-92
2022/07/22 01:31:46;;;;;;;;;;;30.70;43.50;;;;;;665806;29;797;-90
2022/07/22 01:32:08;;;;;;;;;;;30.50;36.60;;;;;;665865;29;1399;-92
2022/07/22 01:32:29;;;;;;;;;;;30.60;37.80;;;;;;665294;29;1257;-91
2022/07/22 01:32:50;;;;;;;;;;;30.60;44.90;;;;;;665978;29;1259;-95
2022/07/22 01:33:10;;;;;;;;;;;30.50;43.70;;;;;;663882;29;1329;-96
2022/07/22 01:33:32;;;;;;;;;;;30.70;45.80;;;;;;665245;29;1267;-96
2022/07/22 01:33:53;;;;;;;;;;;30.50;41.50;;;;;;665345;29;1400;-95
2022/07/22 01:34:14;;;;;;;;;;;30.50;39.50;;;;;;665146;29;1233;-95
2022/07/22 01:34:36;;;;;;;;;;;30.70;46.80;;;;;;665868;29;1217;-95
2022/07/22 01:34:57;;;;;;;;;;;30.50;40.50;;;;;;665362;29;1488;-95
2022/07/22 01:35:17;;;;;;;;;;;29.80;45.30;;;;;;665226;29;1228;-95
2022/07/22 01:35:38;;;;;;;;;;;31.80;37.70;;;;;;665147;29;1225;-95
2022/07/22 01:35:58;;;;;;;;;;;30.70;46.40;;;;;;665213;29;1179;-92
2022/07/22 01:36:19;;;;;;;;;;;30.50;36.60;;;;;;663122;29;1291;-91
2022/07/22 01:36:41;;;;;;;;;;;30.50;36.60;;;;;;665257;29;1229;-94
2022/07/22 01:37:01;;;;;;;;;;;29.60;37.10;;;;;;665011;29;1320;-93
2022/07/22 01:37:22;;;;;;;;;;;30.50;44.80;;;;;;662683;29;1316;-92
2022/07/22 01:37:43;;;;;;;;;;;30.60;49.40;;;;;;663095;29;1269;-96
2022/07/22 01:38:03;;;;;;;;;;;30.50;48.50;;;;;;665119;29;1286;-95
2022/07/22 01:38:24;;;;;;;;;;;30.50;36.60;;;;;;665161;29;1168;-95
2022/07/22 01:38:45;;;;;;;;;;;30.70;47.40;;;;;;665174;29;1269;-95
2022/07/22 01:39:06;;;;;;;;;;;30.50;37.10;;;;;;665367;29;1207;-95
2022/07/22 01:39:28;;;;;;;;;;;30.50;36.50;;;;;;667687;29;1106;-94
2022/07/22 01:39:48;;;;;;;;;;;30.50;37.30;;;;;;667396;29;1426;-92
2022/07/22 01:40:09;;;;;;;;;;;30.70;40.20;;;;;;665093;29;1312;-95
2022/07/22 01:40:30;;;;;;;;;;;30.70;36.50;;;;;;664558;29;1225;-95
2022/07/22 01:40:50;;;;;;;;;;;30.60;46.30;;;;;;660663;29;1281;-93
2022/07/22 01:41:13;;;;;;;;;;;30.50;48.30;;;;;;659998;29;1387;-95
2022/07/22 01:41:34;;;;;;;;;;;30.50;37.30;;;;;;660239;29;1099;-96
2022/07/22 01:41:54;;;;;;;;;;;31.10;47.60;;;;;;660710;29;1351;-94
2022/07/22 01:42:15;;;;;;;;;;;30.50;44.80;;;;;;662588;29;1213;-96
2022/07/22 01:42:35;;;;;;;;;;;30.50;36.40;;;;;;662290;29;1271;-94
2022/07/22 01:42:56;;;;;;;;;;;30.70;40.40;;;;;;662148;29;1209;-94
2022/07/22 01:43:17;;;;;;;;;;;30.70;42.70;;;;;;660170;29;1203;-95
2022/07/22 01:43:38;;;;;;;;;;;30.50;37.80;;;;;;662165;29;1908;-90
2022/07/22 01:43:59;;;;;;;;;;;32.90;38.30;;;;;;661495;29;1291;-91
2022/07/22 01:44:19;;;;;;;;;;;30.50;36.50;;;;;;662178;29;1333;-96
2022/07/22 01:44:40;;;;;;;;;;;30.50;36.30;;;;;;662804;29;1228;-96
2022/07/22 01:45:01;;;;;;;;;;;30.50;43.30;;;;;;662462;29;1521;-95
2022/07/22 01:45:22;;;;;;;;;;;30.50;36.40;;;;;;660187;29;1263;-96
2022/07/22 01:45:43;;;;;;;;;;;30.50;36.20;;;;;;662597;29;1390;-93
2022/07/22 01:46:04;;;;;;;;;;;30.50;41.30;;;;;;662517;29;1360;-95
2022/07/22 01:46:25;;;;;;;;;;;30.50;39.80;;;;;;662567;29;1329;-96
2022/07/22 01:46:45;;;;;;;;;;;27.90;34.30;;;;;;660436;29;1500;-94
2022/07/22 01:47:06;;;;;;;;;;;30.50;36.10;;;;;;660460;29;1352;-91
2022/07/22 01:47:27;;;;;;;;;;;30.50;38.60;;;;;;659998;29;1218;-95
2022/07/22 01:47:47;;;;;;;;;;;30.50;36.70;;;;;;660428;29;1317;-95
2022/07/22 01:48:08;;;;;;;;;;;30.80;44.60;;;;;;660040;29;1241;-95
2022/07/22 01:48:29;;;;;;;;;;;30.50;36.10;;;;;;660357;29;1263;-94
2022/07/22 01:48:52;;;;;;;;;;;30.50;44.80;;;;;;662792;29;1220;-94
2022/07/22 01:49:14;;;;;;;;;;;30.50;36.30;;;;;;662514;29;1288;-96
2022/07/22 01:49:35;;;;;;;;;;;30.50;43.50;;;;;;663262;29;1281;-93
2022/07/22 01:49:56;;;;;;;;;;;30.50;36.80;;;;;;664952;29;1346;-96
2022/07/22 01:50:16;;;;;;;;;;;30.50;36.40;;;;;;662420;29;1419;-95
2022/07/22 01:50:37;;;;;;;;;;;30.50;36.30;;;;;;662419;29;1371;-91
2022/07/22 01:50:58;;;;;;;;;;;30.50;36.10;;;;;;659931;30;1360;-93
2022/07/22 01:51:19;;;;;;;;;;;30.40;36.00;;;;;;660249;29;1134;-93
2022/07/22 01:51:39;;;;;;;;;;;30.50;37.80;;;;;;660031;29;1341;-95
2022/07/22 01:52:01;;;;;;;;;;;30.50;36.20;;;;;;660316;29;1381;-93
2022/07/22 01:52:21;;;;;;;;;;;30.50;36.20;;;;;;659950;29;1273;-95
2022/07/22 01:52:42;;;;;;;;;;;30.50;36.10;;;;;;659952;29;1496;-95
2022/07/22 01:53:03;;;;;;;;;;;30.50;39.10;;;;;;660406;29;1320;-94
2022/07/22 01:53:24;;;;;;;;;;;30.70;42.30;;;;;;662908;29;1269;-95
2022/07/22 01:53:44;;;;;;;;;;;30.50;36.00;;;;;;664872;29;1398;-94
2022/07/22 01:54:05;;;;;;;;;;;30.50;36.10;;;;;;664889;29;1475;-92
2022/07/22 01:54:25;;;;;;;;;;;30.50;36.20;;;;;;663754;29;1426;-92
2022/07/22 01:54:46;;;;;;;;;;;30.50;36.00;;;;;;664793;29;1225;-92
2022/07/22 01:55:07;;;;;;;;;;;30.50;35.90;;;;;;665076;29;1330;-94
2022/07/22 01:55:28;;;;;;;;;;;30.40;37.60;;;;;;667024;29;1338;-94
2022/07/22 01:55:48;;;;;;;;;;;27.70;33.90;;;;;;664841;29;1304;-93
2022/07/22 01:56:09;;;;;;;;;;;30.50;36.00;;;;;;662365;29;1221;-92
2022/07/22 01:56:30;;;;;;;;;;;30.50;36.10;;;;;;662561;29;1410;-92
2022/07/22 01:56:50;;;;;;;;;;;30.50;36.30;;;;;;662340;29;1251;-91
2022/07/22 01:57:11;;;;;;;;;;;30.40;36.50;;;;;;662482;29;1249;-93
2022/07/22 01:57:31;;;;;;;;;;;30.50;38.20;;;;;;662646;29;1292;-93
2022/07/22 01:57:52;;;;;;;;;;;30.50;38.20;;;;;;664592;29;1295;-93
2022/07/22 01:58:13;;;;;;;;;;;30.50;37.90;;;;;;664763;29;1237;-93
2022/07/22 01:58:33;;;;;;;;;;;30.50;36.00;;;;;;664807;29;1245;-89
2022/07/22 01:58:54;;;;;;;;;;;30.50;37.50;;;;;;664872;29;1410;-91
2022/07/22 01:59:15;;;;;;;;;;;30.50;36.70;;;;;;664677;29;1216;-94
2022/07/22 01:59:35;;;;;;;;;;;30.50;36.30;;;;;;665232;29;1338;-88
2022/07/22 01:59:56;;;;;;;;;;;30.50;38.30;;;;;;667509;29;1403;-94
2022/07/22 02:00:17;;;;;;;;;;;30.50;36.00;;;;;;667371;29;1263;-91
2022/07/22 02:00:38;;;;;;;;;;;30.50;37.20;;;;;;664622;29;1217;-92
2022/07/22 02:00:59;;;;;;;;;;;30.50;36.40;;;;;;662449;29;1293;-93
2022/07/22 02:01:21;;;;;;;;;;;30.50;36.00;;;;;;660441;29;1232;-93
2022/07/22 02:01:41;;;;;;;;;;;30.50;36.10;;;;;;662425;29;1220;-91
2022/07/22 02:02:02;;;;;;;;;;;30.50;36.20;;;;;;659870;30;1288;-90
2022/07/22 02:02:23;;;;;;;;;;;30.50;36.10;;;;;;657789;30;1234;-93
2022/07/22 02:02:44;;;;;;;;;;;30.40;36.00;;;;;;657879;30;1392;-95
2022/07/22 02:03:06;;;;;;;;;;;30.50;35.80;;;;;;660506;29;1278;-91
2022/07/22 02:03:26;;;;;;;;;;;30.50;37.00;;;;;;659759;29;1915;-92
2022/07/22 02:03:47;;;;;;;;;;;30.50;37.60;;;;;;660506;29;959;-93
2022/07/22 02:04:07;;;;;;;;;;;30.50;35.90;;;;;;659841;29;1485;-94
2022/07/22 02:04:28;;;;;;;;;;;30.50;37.30;;;;;;660479;29;1313;-94
2022/07/22 02:04:49;;;;;;;;;;;30.50;35.90;;;;;;660327;29;1255;-94
2022/07/22 02:05:09;;;;;;;;;;;30.50;35.80;;;;;;661584;29;1410;-89
2022/07/22 02:05:30;;;;;;;;;;;30.50;35.80;;;;;;660136;29;1314;-94